Time;durP1;ratioP1;P1;durP2;ratioP2;P2;SDS_P1;SDS_P2;PMS_P1;PMS_P2;Temp;Humidity;BMP_temperature;BMP_pressure;BME280_temperature;BME280_humidity;BME280_pressure;Samples;Min_cycle;Max_cycle;Signal;HPM_P1;HPM_P2
2023/04/17 00:01:04;;;;;;;45.90;38.23;;;9.60;99.90;;;;;;5117724;28;20495;-66
2023/04/17 00:03:33;;;;;;;51.80;40.17;;;9.60;99.90;;;;;;5118460;28;20459;-66
2023/04/17 00:06:02;;;;;;;48.07;37.70;;;9.60;99.90;;;;;;5117578;28;20764;-66
2023/04/17 00:08:29;;;;;;;47.40;38.47;;;9.60;99.90;;;;;;5117532;28;20734;-66
2023/04/17 00:10:57;;;;;;;46.27;36.97;;;9.60;99.90;;;;;;5117570;28;20464;-66
2023/04/17 00:13:24;;;;;;;48.87;40.27;;;9.50;99.90;;;;;;5117715;28;20490;-66
2023/04/17 00:15:51;;;;;;;41.70;35.47;;;9.50;99.90;;;;;;5117230;28;20463;-66
2023/04/17 00:18:18;;;;;;;45.50;37.07;;;9.50;99.90;;;;;;5117496;28;20459;-66
2023/04/17 00:20:45;;;;;;;46.57;36.70;;;9.50;99.90;;;;;;5117741;28;20549;-66
2023/04/17 00:23:16;;;;;;;40.70;34.40;;;9.50;99.90;;;;;;5117470;28;20765;-66
2023/04/17 00:25:45;;;;;;;43.93;36.30;;;9.50;99.90;;;;;;5117590;28;20443;-66
2023/04/17 00:28:12;;;;;;;47.60;37.70;;;9.50;99.90;;;;;;5118173;28;20960;-66
2023/04/17 00:30:39;;;;;;;44.57;37.20;;;9.50;99.90;;;;;;5120960;28;20466;-65
2023/04/17 00:33:06;;;;;;;40.57;34.37;;;9.50;99.90;;;;;;5121090;28;20756;-65
2023/04/17 00:35:33;;;;;;;45.90;36.77;;;9.60;99.90;;;;;;5121262;28;20876;-66
2023/04/17 00:38:03;;;;;;;49.53;37.20;;;9.50;99.90;;;;;;5120949;28;20455;-65
2023/04/17 00:40:32;;;;;;;52.77;36.90;;;9.50;99.90;;;;;;5120647;28;20491;-65
2023/04/17 00:43:03;;;;;;;47.20;36.57;;;9.50;99.90;;;;;;5120845;28;20466;-65
2023/04/17 00:45:34;;;;;;;42.70;38.10;;;9.50;99.90;;;;;;5121104;28;20754;-66
2023/04/17 00:48:03;;;;;;;43.37;36.33;;;9.50;99.90;;;;;;5121021;28;20461;-66
2023/04/17 00:50:30;;;;;;;40.67;35.37;;;9.50;99.90;;;;;;5120483;28;20455;-65
2023/04/17 00:52:59;;;;;;;42.23;34.60;;;9.50;99.90;;;;;;5120868;28;20492;-65
2023/04/17 00:55:27;;;;;;;42.03;35.90;;;9.40;99.90;;;;;;5121297;27;20455;-65
2023/04/17 00:58:00;;;;;;;44.50;35.20;;;9.50;99.90;;;;;;5121621;28;20466;-65
2023/04/17 01:00:27;;;;;;;46.83;35.57;;;9.50;99.90;;;;;;5120959;28;20466;-65
2023/04/17 01:02:56;;;;;;;42.10;37.40;;;9.40;99.90;;;;;;5120320;28;20459;-65
2023/04/17 01:05:26;;;;;;;46.63;36.10;;;9.40;99.90;;;;;;5122413;27;20528;-65
2023/04/17 01:07:54;;;;;;;43.10;37.03;;;9.40;99.90;;;;;;5141333;27;20485;-65
2023/04/17 01:10:22;;;;;;;44.50;34.87;;;9.40;99.90;;;;;;5141460;27;20887;-65
2023/04/17 01:13:03;;;;;;;44.77;35.87;;;9.40;99.90;;;;;;5141052;27;20854;-65
2023/04/17 01:15:30;;;;;;;43.30;35.60;;;9.30;99.90;;;;;;5141315;27;20876;-65
2023/04/17 01:17:57;;;;;;;44.90;37.63;;;9.30;99.90;;;;;;5140350;27;20465;-65
2023/04/17 01:20:29;;;;;;;44.07;37.53;;;9.40;99.90;;;;;;5140419;27;20496;-65
2023/04/17 01:22:57;;;;;;;42.70;36.20;;;9.30;99.90;;;;;;5140935;27;20470;-65
2023/04/17 01:25:27;;;;;;;48.77;36.47;;;9.30;99.90;;;;;;5141232;27;20458;-65
2023/04/17 01:27:55;;;;;;;45.67;38.03;;;9.40;99.90;;;;;;5140094;27;20493;-64
2023/04/17 01:30:22;;;;;;;46.20;39.53;;;9.30;99.90;;;;;;5141018;27;20458;-64
2023/04/17 01:32:49;;;;;;;52.57;40.83;;;9.40;99.90;;;;;;5140748;27;20531;-64
2023/04/17 01:35:16;;;;;;;48.37;40.17;;;9.30;99.90;;;;;;5140934;27;20480;-64
2023/04/17 01:37:44;;;;;;;50.43;40.97;;;9.30;99.90;;;;;;5140840;27;20472;-64
2023/04/17 01:40:11;;;;;;;49.77;40.47;;;9.30;99.90;;;;;;5140302;27;20577;-64
2023/04/17 01:42:40;;;;;;;47.30;39.97;;;9.30;99.90;;;;;;5140578;27;20511;-64
2023/04/17 01:45:08;;;;;;;46.60;39.23;;;9.30;99.90;;;;;;5140563;27;20458;-64
2023/04/17 01:47:35;;;;;;;49.43;39.67;;;9.30;99.90;;;;;;5140531;27;20462;-64
2023/04/17 01:50:03;;;;;;;42.60;36.73;;;9.30;99.90;;;;;;5140216;27;20464;-63
2023/04/17 01:52:30;;;;;;;50.10;38.67;;;9.30;99.90;;;;;;5139859;27;20508;-64
2023/04/17 01:54:57;;;;;;;47.50;38.57;;;9.30;99.90;;;;;;5140280;27;20557;-64
2023/04/17 01:57:24;;;;;;;43.47;36.30;;;9.30;99.90;;;;;;5140341;27;20466;-64
2023/04/17 01:59:53;;;;;;;42.13;37.23;;;9.30;99.90;;;;;;5140044;27;20892;-64
2023/04/17 02:02:20;;;;;;;46.57;37.30;;;9.30;99.90;;;;;;5139796;27;20441;-64
2023/04/17 02:04:47;;;;;;;46.70;38.10;;;9.30;99.90;;;;;;5140129;27;20787;-64
2023/04/17 02:07:15;;;;;;;46.53;37.33;;;9.30;99.90;;;;;;5139924;27;20454;-64
2023/04/17 02:09:42;;;;;;;44.33;38.13;;;9.30;99.90;;;;;;5139204;27;20522;-63
2023/04/17 02:12:09;;;;;;;41.93;37.27;;;9.30;99.90;;;;;;5139886;27;20811;-64
2023/04/17 02:14:36;;;;;;;42.00;36.00;;;9.30;99.90;;;;;;5139885;27;20433;-64
2023/04/17 02:17:05;;;;;;;47.50;36.83;;;9.30;99.90;;;;;;5139725;27;20465;-64
2023/04/17 02:19:32;;;;;;;41.00;35.77;;;9.20;99.90;;;;;;5140018;27;20505;-64
2023/04/17 02:21:59;;;;;;;42.30;35.83;;;9.20;99.90;;;;;;5139556;27;20513;-64
2023/04/17 02:24:26;;;;;;;39.13;34.60;;;9.20;99.90;;;;;;5139398;27;20440;-63
2023/04/17 02:26:54;;;;;;;44.57;36.47;;;9.30;99.90;;;;;;5139639;27;20535;-63
2023/04/17 02:29:21;;;;;;;39.23;35.07;;;9.20;99.90;;;;;;5138582;27;20488;-63
2023/04/17 02:31:48;;;;;;;38.53;34.40;;;9.20;99.90;;;;;;5139108;27;20879;-64
2023/04/17 02:34:16;;;;;;;39.60;33.77;;;9.20;99.90;;;;;;5139138;27;20463;-63
2023/04/17 02:36:43;;;;;;;42.43;36.50;;;9.20;99.90;;;;;;5139535;27;20459;-63
2023/04/17 02:39:10;;;;;;;43.70;35.77;;;9.10;99.90;;;;;;5139439;27;20459;-63
2023/04/17 02:41:38;;;;;;;42.43;34.00;;;9.10;99.90;;;;;;5139455;27;20483;-63
2023/04/17 02:44:05;;;;;;;43.53;36.80;;;9.10;99.90;;;;;;5138782;27;20466;-63
2023/04/17 02:46:32;;;;;;;39.13;34.73;;;9.10;99.90;;;;;;5138967;27;20473;-64
2023/04/17 02:48:59;;;;;;;42.93;34.90;;;9.10;99.90;;;;;;5139648;27;20543;-64
2023/04/17 02:51:28;;;;;;;41.77;36.20;;;9.00;99.90;;;;;;5138317;27;20467;-64
2023/04/17 02:53:55;;;;;;;43.13;35.30;;;9.00;99.90;;;;;;5138439;27;20462;-64
2023/04/17 02:56:22;;;;;;;43.43;36.43;;;9.00;99.90;;;;;;5138664;27;20465;-64
2023/04/17 02:58:49;;;;;;;41.20;36.33;;;9.00;99.90;;;;;;5138870;27;20756;-64
2023/04/17 03:01:16;;;;;;;42.40;35.63;;;9.00;99.90;;;;;;5138976;27;20766;-64
2023/04/17 03:03:43;;;;;;;42.17;35.33;;;8.90;99.90;;;;;;5139311;27;20451;-63
2023/04/17 03:06:10;;;;;;;41.90;36.03;;;8.90;99.90;;;;;;5138806;27;20960;-63
2023/04/17 03:08:39;;;;;;;45.13;35.40;;;9.00;99.90;;;;;;5138719;27;20463;-63
2023/04/17 03:11:07;;;;;;;41.77;35.47;;;8.90;99.90;;;;;;5138481;27;20458;-63
2023/04/17 03:13:35;;;;;;;42.50;34.93;;;8.90;99.90;;;;;;5139089;27;20464;-64
2023/04/17 03:16:03;;;;;;;40.00;33.53;;;8.90;99.90;;;;;;5138291;27;20451;-64
2023/04/17 03:18:30;;;;;;;43.80;34.23;;;8.80;99.90;;;;;;5138479;27;20557;-64
2023/04/17 03:20:57;;;;;;;46.60;34.90;;;8.80;99.90;;;;;;5136911;27;20486;-64
2023/04/17 03:23:25;;;;;;;40.03;35.67;;;8.80;99.90;;;;;;5138614;27;20465;-64
2023/04/17 03:25:53;;;;;;;43.43;35.73;;;8.80;99.90;;;;;;5138528;27;20884;-64
2023/04/17 03:28:22;;;;;;;38.50;33.73;;;8.80;99.90;;;;;;5138046;27;20539;-64
2023/04/17 03:30:50;;;;;;;40.90;34.80;;;8.80;99.90;;;;;;5138653;27;20462;-64
2023/04/17 03:33:17;;;;;;;41.13;34.07;;;8.80;99.90;;;;;;5138456;27;20432;-64
2023/04/17 03:35:45;;;;;;;43.30;34.13;;;8.80;99.90;;;;;;5138790;27;20454;-63
2023/04/17 03:38:12;;;;;;;38.17;34.00;;;8.80;99.90;;;;;;5138212;27;20462;-64
2023/04/17 03:40:39;;;;;;;39.20;33.77;;;8.80;99.90;;;;;;5137945;28;20490;-64
2023/04/17 03:43:08;;;;;;;38.40;31.40;;;8.70;99.90;;;;;;5138903;27;20541;-64
2023/04/17 03:45:35;;;;;;;37.60;30.90;;;8.70;99.90;;;;;;5138540;28;20458;-64
2023/04/17 03:48:02;;;;;;;39.70;31.57;;;8.60;99.90;;;;;;5138406;28;20495;-64
2023/04/17 03:50:29;;;;;;;37.20;30.80;;;8.60;99.90;;;;;;5138380;27;20466;-64
2023/04/17 03:52:56;;;;;;;39.00;31.80;;;8.60;99.90;;;;;;5138089;28;20458;-64
2023/04/17 03:55:24;;;;;;;40.77;30.70;;;8.60;99.90;;;;;;5138366;27;20563;-64
2023/04/17 03:57:51;;;;;;;36.67;31.90;;;8.60;99.90;;;;;;5138021;28;20891;-63
2023/04/17 04:00:25;;;;;;;35.60;30.70;;;8.60;99.90;;;;;;5137974;27;20469;-63
2023/04/17 04:02:52;;;;;;;35.00;31.27;;;8.60;99.90;;;;;;5140760;27;20868;-63
2023/04/17 04:05:19;;;;;;;37.37;30.83;;;8.70;99.90;;;;;;5142706;27;20465;-63
2023/04/17 04:07:46;;;;;;;36.93;29.90;;;8.60;99.90;;;;;;5141676;27;20465;-63
2023/04/17 04:10:14;;;;;;;43.40;31.60;;;8.50;99.90;;;;;;5142013;27;20469;-63
2023/04/17 04:12:41;;;;;;;36.20;30.57;;;8.50;99.90;;;;;;5142462;27;20463;-64
2023/04/17 04:15:09;;;;;;;39.57;32.67;;;8.50;99.90;;;;;;5142061;27;20458;-63
2023/04/17 04:17:37;;;;;;;43.07;32.47;;;8.50;99.90;;;;;;5141569;27;20462;-64
2023/04/17 04:20:07;;;;;;;42.63;31.93;;;8.50;99.90;;;;;;5139764;27;20474;-64
2023/04/17 04:22:35;;;;;;;40.70;32.60;;;8.50;99.90;;;;;;5140200;27;20554;-64
2023/04/17 04:25:02;;;;;;;43.37;32.83;;;8.50;99.90;;;;;;5140120;27;20920;-63
2023/04/17 04:27:31;;;;;;;42.63;33.53;;;8.50;99.90;;;;;;5140035;27;20951;-63
2023/04/17 04:30:03;;;;;;;41.07;34.43;;;8.50;99.90;;;;;;5140522;27;20454;-63
2023/04/17 04:32:30;;;;;;;35.27;31.07;;;8.50;99.90;;;;;;5139870;27;20493;-63
2023/04/17 04:35:00;;;;;;;40.07;34.10;;;8.50;99.90;;;;;;5140007;27;20561;-64
2023/04/17 04:37:30;;;;;;;39.37;31.27;;;8.50;99.90;;;;;;5140084;27;20561;-64
2023/04/17 04:40:01;;;;;;;42.03;34.93;;;8.40;99.90;;;;;;5140048;27;20952;-64
2023/04/17 04:42:28;;;;;;;42.30;33.30;;;8.40;99.90;;;;;;5139167;27;20493;-64
2023/04/17 04:44:55;;;;;;;38.77;33.27;;;8.40;99.90;;;;;;5139900;27;20451;-63
2023/04/17 04:47:22;;;;;;;41.90;34.63;;;8.40;99.90;;;;;;5139220;27;20553;-63
2023/04/17 04:49:54;;;;;;;42.47;33.30;;;8.30;99.90;;;;;;5140008;27;20530;-63
2023/04/17 04:52:22;;;;;;;39.20;32.63;;;8.40;99.90;;;;;;5141201;27;20571;-64
2023/04/17 04:54:50;;;;;;;42.97;33.63;;;8.40;99.90;;;;;;5140950;27;20465;-64
2023/04/17 04:57:17;;;;;;;42.03;35.40;;;8.40;99.90;;;;;;5140886;27;20718;-63
2023/04/17 04:59:44;;;;;;;43.60;35.20;;;8.40;99.90;;;;;;5141403;27;20528;-63
2023/04/17 05:02:11;;;;;;;41.27;33.53;;;8.40;99.90;;;;;;5141158;27;20943;-63
2023/04/17 05:04:38;;;;;;;46.90;36.17;;;8.50;99.90;;;;;;5141384;27;20494;-63
2023/04/17 05:07:06;;;;;;;48.60;37.63;;;8.50;99.90;;;;;;5141298;27;20899;-62
2023/04/17 05:09:35;;;;;;;47.60;35.10;;;8.50;99.90;;;;;;5141297;27;20562;-63
2023/04/17 05:12:02;;;;;;;45.47;37.03;;;8.60;99.90;;;;;;5137508;27;21166;-63
2023/04/17 05:14:29;;;;;;;44.57;36.00;;;8.60;99.90;;;;;;5119165;28;20931;-63
2023/04/17 05:16:56;;;;;;;47.97;38.97;;;8.60;99.90;;;;;;5119571;28;20459;-63
2023/04/17 05:19:24;;;;;;;45.43;38.70;;;8.60;99.90;;;;;;5120105;28;20459;-63
2023/04/17 05:21:52;;;;;;;45.23;35.53;;;8.60;99.90;;;;;;5120212;28;20767;-63
2023/04/17 05:24:19;;;;;;;46.47;38.33;;;8.70;99.90;;;;;;5128341;27;20455;-63
2023/04/17 05:26:48;;;;;;;43.40;36.63;;;8.60;99.90;;;;;;5141673;27;20465;-64
2023/04/17 05:29:15;;;;;;;48.50;38.70;;;8.60;99.90;;;;;;5140741;27;20490;-63
2023/04/17 05:31:42;;;;;;;49.47;39.63;;;8.60;99.90;;;;;;5141716;27;20481;-63
2023/04/17 05:34:09;;;;;;;51.03;39.03;;;8.70;99.90;;;;;;5141396;27;20463;-63
2023/04/17 05:36:36;;;;;;;50.50;40.10;;;8.60;99.90;;;;;;5139187;27;20931;-64
2023/04/17 05:39:03;;;;;;;50.80;40.27;;;8.70;99.90;;;;;;5140607;27;20459;-63
2023/04/17 05:41:30;;;;;;;50.40;38.20;;;8.70;99.90;;;;;;5139209;27;20496;-64
2023/04/17 05:43:59;;;;;;;48.23;39.70;;;8.70;99.90;;;;;;5139020;27;20446;-64
2023/04/17 05:46:26;;;;;;;46.10;36.40;;;8.70;99.90;;;;;;5138090;27;20536;-63
2023/04/17 05:48:53;;;;;;;47.10;38.90;;;8.60;99.90;;;;;;5138304;27;20481;-64
2023/04/17 05:51:21;;;;;;;50.50;40.23;;;8.50;99.90;;;;;;5138647;27;20511;-63
2023/04/17 05:53:48;;;;;;;48.90;40.00;;;8.60;99.90;;;;;;5137831;27;20565;-63
2023/04/17 05:56:15;;;;;;;51.10;39.10;;;8.70;99.90;;;;;;5138212;27;20458;-63
2023/04/17 05:58:42;;;;;;;48.17;38.30;;;8.70;99.90;;;;;;5139017;27;20458;-64
2023/04/17 06:01:11;;;;;;;49.30;39.43;;;8.60;99.90;;;;;;5140008;27;20458;-64
2023/04/17 06:03:38;;;;;;;49.00;38.07;;;8.70;99.90;;;;;;5140473;27;20462;-63
2023/04/17 06:06:06;;;;;;;48.93;38.33;;;8.70;99.90;;;;;;5139946;27;20466;-64
2023/04/17 06:08:33;;;;;;;51.63;39.40;;;8.70;99.90;;;;;;5139737;27;20459;-64
2023/04/17 06:11:00;;;;;;;44.43;37.70;;;8.80;99.90;;;;;;5139654;27;20462;-64
2023/04/17 06:13:27;;;;;;;50.03;39.30;;;8.80;99.90;;;;;;5140010;27;20454;-64
2023/04/17 06:15:55;;;;;;;46.97;38.40;;;8.70;99.90;;;;;;5139447;27;20894;-64
2023/04/17 06:18:23;;;;;;;49.47;39.27;;;8.60;99.90;;;;;;5139454;27;20463;-64
2023/04/17 06:20:51;;;;;;;54.87;42.47;;;8.70;99.90;;;;;;5139590;27;20541;-64
2023/04/17 06:23:18;;;;;;;54.90;41.90;;;8.70;99.90;;;;;;5139610;27;20490;-64
2023/04/17 06:25:45;;;;;;;54.97;45.23;;;8.80;99.90;;;;;;5139895;27;21306;-64
2023/04/17 06:28:12;;;;;;;57.77;43.87;;;8.70;99.90;;;;;;5139170;27;20573;-64
2023/04/17 06:30:39;;;;;;;54.07;43.77;;;8.70;99.90;;;;;;5139573;27;20542;-64
2023/04/17 06:33:06;;;;;;;52.50;41.50;;;8.80;99.90;;;;;;5139311;27;20451;-64
2023/04/17 06:35:36;;;;;;;60.63;42.87;;;8.80;99.90;;;;;;5131624;27;20791;-64
2023/04/17 06:38:03;;;;;;;55.53;42.77;;;8.80;99.90;;;;;;5117971;28;20509;-64
2023/04/17 06:40:31;;;;;;;54.03;41.90;;;8.80;99.90;;;;;;5118235;28;20459;-64
2023/04/17 06:42:58;;;;;;;51.20;39.90;;;8.80;99.90;;;;;;5118609;28;20986;-65
2023/04/17 06:45:25;;;;;;;50.50;40.37;;;8.90;99.90;;;;;;5118743;28;20456;-64
2023/04/17 06:47:52;;;;;;;55.00;42.30;;;9.00;99.90;;;;;;5118115;28;20964;-64
2023/04/17 06:50:20;;;;;;;48.57;41.20;;;9.00;99.90;;;;;;5118134;28;20459;-64
2023/04/17 06:52:49;;;;;;;55.50;43.13;;;9.00;99.90;;;;;;5118570;28;20466;-64
2023/04/17 06:55:16;;;;;;;51.80;41.87;;;9.10;99.90;;;;;;5118002;28;20459;-64
2023/04/17 06:57:43;;;;;;;52.17;40.83;;;9.10;99.90;;;;;;5117176;28;20455;-64
2023/04/17 07:00:12;;;;;;;44.70;37.80;;;9.10;99.90;;;;;;5117914;28;20757;-64
2023/04/17 07:02:39;;;;;;;48.60;41.30;;;9.00;99.90;;;;;;5117962;28;20491;-65
2023/04/17 07:05:06;;;;;;;51.47;40.70;;;9.10;99.90;;;;;;5118116;28;20466;-64
2023/04/17 07:07:34;;;;;;;55.83;42.63;;;9.10;99.90;;;;;;5117898;28;20483;-64
2023/04/17 07:10:03;;;;;;;47.30;39.20;;;9.00;99.90;;;;;;5116971;28;20491;-65
2023/04/17 07:12:30;;;;;;;47.50;40.23;;;8.90;99.90;;;;;;5116306;28;20774;-65
2023/04/17 07:14:57;;;;;;;46.07;38.80;;;9.00;99.90;;;;;;5116208;28;20498;-65
2023/04/17 07:17:25;;;;;;;47.13;38.03;;;9.00;99.90;;;;;;5116249;28;20467;-65
2023/04/17 07:19:53;;;;;;;48.17;40.40;;;8.90;99.90;;;;;;5116309;28;20904;-65
2023/04/17 07:22:20;;;;;;;52.80;41.80;;;9.00;99.90;;;;;;5115900;28;20510;-65
2023/04/17 07:24:47;;;;;;;47.57;41.77;;;9.10;99.90;;;;;;5116468;28;20503;-65
2023/04/17 07:27:16;;;;;;;50.30;43.30;;;9.10;99.90;;;;;;5120738;28;20457;-65
2023/04/17 07:29:45;;;;;;;51.33;43.20;;;9.30;99.90;;;;;;5138324;27;20486;-65
2023/04/17 07:32:13;;;;;;;51.00;42.93;;;9.40;99.90;;;;;;5138372;27;20935;-65
2023/04/17 07:34:41;;;;;;;52.60;44.30;;;9.30;99.90;;;;;;5138893;27;20475;-65
2023/04/17 07:37:08;;;;;;;53.17;41.90;;;9.20;99.90;;;;;;5137976;27;20530;-65
2023/04/17 07:39:35;;;;;;;47.97;40.30;;;9.20;99.90;;;;;;5139342;27;20860;-66
2023/04/17 07:42:05;;;;;;;47.03;40.17;;;9.20;99.90;;;;;;5139185;27;20490;-65
2023/04/17 07:44:33;;;;;;;51.73;42.90;;;9.10;99.90;;;;;;5138274;27;20883;-64
2023/04/17 07:47:01;;;;;;;50.23;42.30;;;9.10;99.90;;;;;;5138795;28;20490;-65
2023/04/17 07:49:28;;;;;;;55.07;44.50;;;9.10;99.90;;;;;;5138645;28;20463;-66
2023/04/17 07:51:55;;;;;;;46.53;39.17;;;9.10;99.90;;;;;;5138390;27;20454;-65
2023/04/17 07:54:22;;;;;;;47.73;40.73;;;9.10;99.90;;;;;;5138598;28;20745;-65
2023/04/17 07:56:49;;;;;;;53.77;43.60;;;9.10;99.90;;;;;;5125280;28;20893;-65
2023/04/17 07:59:16;;;;;;;49.23;40.77;;;9.00;99.90;;;;;;5117797;28;20521;-65
2023/04/17 08:01:45;;;;;;;53.00;40.80;;;9.20;99.90;;;;;;5117832;28;20459;-66
2023/04/17 08:04:12;;;;;;;49.93;39.47;;;9.20;99.90;;;;;;5117049;28;20918;-66
2023/04/17 08:06:40;;;;;;;49.87;42.30;;;9.20;99.90;;;;;;5117737;28;20463;-65
2023/04/17 08:09:07;;;;;;;46.07;40.07;;;9.20;99.90;;;;;;5116853;28;20460;-65
2023/04/17 08:11:34;;;;;;;46.57;39.10;;;9.30;99.90;;;;;;5116487;28;20463;-66
2023/04/17 08:14:02;;;;;;;46.20;38.93;;;9.20;99.90;;;;;;5115680;28;20495;-65
2023/04/17 08:16:29;;;;;;;40.73;34.77;;;9.50;99.90;;;;;;5116795;28;20459;-66
2023/04/17 08:18:58;;;;;;;36.07;29.17;;;9.60;99.90;;;;;;5116304;28;20749;-65
2023/04/17 08:21:25;;;;;;;35.33;31.40;;;9.70;99.90;;;;;;5117553;28;20464;-65
2023/04/17 08:23:52;;;;;;;38.37;30.47;;;9.80;99.90;;;;;;5115589;28;20838;-65
2023/04/17 08:26:19;;;;;;;41.73;30.40;;;9.80;99.90;;;;;;5115685;28;20759;-65
2023/04/17 08:28:47;;;;;;;37.00;30.10;;;9.90;99.90;;;;;;5115337;28;20491;-65
2023/04/17 08:31:14;;;;;;;33.73;28.40;;;10.20;99.90;;;;;;5116393;28;20494;-65
2023/04/17 08:33:41;;;;;;;30.60;27.37;;;10.60;99.90;;;;;;5116229;28;20456;-65
2023/04/17 08:36:10;;;;;;;29.83;26.60;;;10.70;99.90;;;;;;5116070;28;20769;-65
2023/04/17 08:38:37;;;;;;;30.77;26.40;;;11.00;99.90;;;;;;5116780;28;20916;-65
2023/04/17 08:41:06;;;;;;;26.13;23.23;;;11.50;99.90;;;;;;5117525;28;20463;-65
2023/04/17 08:43:35;;;;;;;28.17;23.50;;;11.80;1.00;;;;;;5117187;28;20546;-65
2023/04/17 08:46:03;;;;;;;26.90;22.40;;;11.90;1.00;;;;;;5116593;28;20558;-64
2023/04/17 08:48:30;;;;;;;24.63;22.00;;;12.10;95.10;;;;;;5117604;28;20481;-65
2023/04/17 08:50:58;;;;;;;24.87;22.27;;;12.00;4.00;;;;;;5120967;28;20758;-65
2023/04/17 08:53:26;;;;;;;23.07;20.43;;;12.20;1.00;;;;;;5120118;28;20459;-65
2023/04/17 08:55:53;;;;;;;23.80;21.30;;;12.30;1.00;;;;;;5118292;28;20463;-65
2023/04/17 08:58:24;;;;;;;23.70;21.27;;;12.50;1.00;;;;;;5118238;28;20460;-64
2023/04/17 09:00:52;;;;;;;24.00;21.40;;;12.60;1.00;;;;;;5119368;28;20868;-64
2023/04/17 09:03:19;;;;;;;23.07;20.53;;;12.60;1.00;;;;;;5119887;28;20487;-64
2023/04/17 09:05:47;;;;;;;22.50;20.20;;;12.80;1.00;;;;;;5119049;27;20508;-64
2023/04/17 09:08:16;;;;;;;24.50;22.00;;;12.90;1.00;;;;;;5117274;28;20434;-65
2023/04/17 09:10:47;;;;;;;21.63;19.30;;;13.10;1.00;;;;;;5117531;28;20466;-63
2023/04/17 09:13:15;;;;;;;22.80;20.60;;;13.10;1.00;;;;;;5116926;27;20464;-64
2023/04/17 09:15:43;;;;;;;21.70;19.40;;;13.30;1.00;;;;;;5117472;28;20466;-64
2023/04/17 09:18:26;;;;;;;20.77;18.53;;;13.10;1.00;;;;;;5117651;28;20885;-63
2023/04/17 09:20:56;;;;;;;21.80;19.77;;;13.30;1.00;;;;;;5117355;28;20463;-63
2023/04/17 09:23:23;;;;;;;20.83;18.03;;;13.60;1.00;;;;;;5119718;28;20585;-63
2023/04/17 09:29:02;;;;;;;20.73;18.17;;;13.70;1.00;;;;;;5094310;27;21053;-63
2023/04/17 09:31:31;;;;;;;17.77;16.03;;;13.70;1.00;;;;;;5094862;28;20816;-63
2023/04/17 09:33:59;;;;;;;19.93;17.77;;;13.90;1.00;;;;;;5094362;28;20463;-63
2023/04/17 09:36:27;;;;;;;20.17;18.13;;;14.20;99.90;;;;;;5094832;28;20461;-59
2023/04/17 09:38:54;;;;;;;18.43;16.63;;;14.40;99.90;;;;;;5094888;28;20460;-63
2023/04/17 09:41:26;;;;;;;21.10;16.80;;;14.90;99.90;;;;;;5094176;28;20776;-63
2023/04/17 09:43:59;;;;;;;17.03;15.33;;;15.30;99.90;;;;;;5094676;28;20453;-63
2023/04/17 09:46:34;;;;;;;18.40;16.47;;;15.40;99.90;;;;;;5094610;28;20529;-65
2023/04/17 09:49:04;;;;;;;21.23;17.73;;;14.60;99.90;;;;;;5094781;28;20581;-63
2023/04/17 09:51:31;;;;;;;17.57;15.93;;;14.30;99.90;;;;;;5093940;28;20924;-65
2023/04/17 09:54:00;;;;;;;18.40;16.43;;;14.30;99.90;;;;;;5094246;28;20461;-63
2023/04/17 09:56:28;;;;;;;18.33;16.50;;;14.10;99.90;;;;;;5094195;28;20468;-63
2023/04/17 09:58:57;;;;;;;19.90;17.87;;;14.60;99.90;;;;;;5094153;28;20507;-63
2023/04/17 10:01:25;;;;;;;20.37;18.20;;;14.70;99.90;;;;;;5094537;28;20493;-63
2023/04/17 10:03:52;;;;;;;20.07;18.07;;;14.00;99.90;;;;;;5093586;28;20460;-64
2023/04/17 10:06:19;;;;;;;19.77;17.83;;;14.00;99.90;;;;;;5092977;28;20486;-64
2023/04/17 10:08:47;;;;;;;20.00;17.93;;;14.00;99.90;;;;;;5092476;28;20980;-64
2023/04/17 10:11:14;;;;;;;20.63;18.40;;;14.00;99.90;;;;;;5092440;28;20477;-62
2023/04/17 10:13:46;;;;;;;19.50;17.60;;;14.20;99.90;;;;;;5091811;28;20496;-65
2023/04/17 10:16:14;;;;;;;19.27;17.00;;;13.80;99.90;;;;;;5092431;28;20547;-61
2023/04/17 10:18:41;;;;;;;19.97;16.73;;;13.80;99.90;;;;;;5093087;28;20465;-62
2023/04/17 10:21:23;;;;;;;19.00;17.17;;;14.30;99.90;;;;;;5093302;28;20453;-62
2023/04/17 10:23:50;;;;;;;19.30;15.87;;;14.20;99.90;;;;;;5090048;28;20456;-62
2023/04/17 10:26:44;;;;;;;17.30;15.60;;;14.50;99.90;;;;;;5090575;28;20897;-61
2023/04/17 10:29:12;;;;;;;17.70;15.83;;;14.60;99.90;;;;;;5090105;28;20453;-59
2023/04/17 10:32:20;;;;;;;16.10;14.60;;;15.10;99.90;;;;;;5088804;28;20475;-61
2023/04/17 10:34:48;;;;;;;16.10;13.77;;;16.20;99.90;;;;;;5086929;28;20452;-62
2023/04/17 10:37:16;;;;;;;16.73;15.17;;;16.90;99.90;;;;;;5088045;28;20761;-63
2023/04/17 10:39:51;;;;;;;16.87;13.30;;;17.10;99.90;;;;;;5078003;28;20453;-62
2023/04/17 10:42:20;;;;;;;14.90;13.50;;;16.70;99.90;;;;;;5076747;28;20457;-62
2023/04/17 10:44:47;;;;;;;15.27;13.40;;;17.50;99.90;;;;;;5074382;28;20456;-61
2023/04/17 10:47:15;;;;;;;16.40;14.90;;;18.10;99.90;;;;;;5076662;28;20482;-63
2023/04/17 10:49:54;;;;;;;15.13;13.70;;;18.10;99.90;;;;;;5073280;28;20469;-62
2023/04/17 10:52:43;;;;;;;14.97;13.57;;;17.50;99.90;;;;;;5078238;28;20465;-62
2023/04/17 10:55:14;;;;;;;16.13;14.60;;;17.90;99.90;;;;;;5077230;28;20457;-62
2023/04/17 10:57:56;;;;;;;15.23;13.83;;;18.00;99.90;;;;;;5077540;28;20762;-62
2023/04/17 11:00:34;;;;;;;14.23;12.83;;;17.50;99.90;;;;;;5077365;28;20465;-62
2023/04/17 11:03:01;;;;;;;14.47;13.07;;;17.40;99.90;;;;;;5076361;28;20958;-62
2023/04/17 11:05:31;;;;;;;12.37;11.27;;;18.00;99.90;;;;;;5075867;28;20463;-63
2023/04/17 11:10:40;;;;;;;15.03;13.10;;;18.40;99.90;;;;;;5072917;28;20973;-62
2023/04/17 11:13:07;;;;;;;12.10;10.80;;;19.00;99.90;;;;;;5069827;28;20467;-63
2023/04/17 11:15:35;;;;;;;12.60;11.30;;;19.20;99.90;;;;;;5076822;28;20548;-63
2023/04/17 11:18:03;;;;;;;12.90;10.63;;;18.30;99.90;;;;;;5077315;28;20463;-62
2023/04/17 11:20:35;;;;;;;12.53;10.43;;;17.70;99.90;;;;;;5078217;28;20458;-63
2023/04/17 11:23:03;;;;;;;12.80;11.70;;;17.20;99.90;;;;;;5077728;28;20783;-60
2023/04/17 11:25:32;;;;;;;11.60;10.50;;;17.50;99.90;;;;;;5077448;28;20786;-62
2023/04/17 11:28:01;;;;;;;11.73;10.63;;;17.30;99.90;;;;;;5076663;28;20837;-62
2023/04/17 11:30:31;;;;;;;12.17;11.07;;;16.90;99.90;;;;;;5076558;28;20807;-60
2023/04/17 11:32:59;;;;;;;11.40;10.30;;;17.00;99.90;;;;;;5076649;28;20457;-60
2023/04/17 11:35:33;;;;;;;11.07;10.07;;;17.40;99.90;;;;;;5076991;28;20461;-61
2023/04/17 11:38:07;;;;;;;10.77;9.87;;;17.50;99.90;;;;;;5076369;28;20826;-62
2023/04/17 11:40:34;;;;;;;10.33;9.20;;;17.00;99.90;;;;;;5077911;28;20850;-58
2023/04/17 11:43:08;;;;;;;11.77;10.67;;;17.00;99.90;;;;;;5077521;28;20499;-58
2023/04/17 11:45:37;;;;;;;12.00;10.80;;;17.60;99.90;;;;;;5076480;28;20861;-61
2023/04/17 11:48:04;;;;;;;11.77;10.70;;;17.90;99.90;;;;;;5077174;28;20488;-61
2023/04/17 11:50:33;;;;;;;13.07;11.50;;;17.60;99.90;;;;;;5077105;28;20462;-61
2023/04/17 11:53:01;;;;;;;10.97;10.07;;;17.20;99.90;;;;;;5078827;28;20873;-59
2023/04/17 11:55:30;;;;;;;11.50;10.30;;;17.10;99.90;;;;;;5077170;28;20857;-60
2023/04/17 11:57:58;;;;;;;11.10;9.73;;;17.40;99.90;;;;;;5077845;28;20440;-61
2023/04/17 12:00:29;;;;;;;12.93;10.80;;;17.90;99.90;;;;;;5078362;28;20469;-60
2023/04/17 12:02:58;;;;;;;12.27;11.13;;;18.20;99.90;;;;;;5077567;28;20905;-60
2023/04/17 12:05:26;;;;;;;11.63;10.53;;;18.50;99.90;;;;;;5078772;28;20465;-60
2023/04/17 12:08:03;;;;;;;14.43;10.70;;;18.30;99.90;;;;;;5078192;28;20543;-59
2023/04/17 12:10:43;;;;;;;11.70;10.50;;;18.70;99.90;;;;;;5077228;28;20474;-60
2023/04/17 12:13:11;;;;;;;11.27;10.27;;;18.90;99.90;;;;;;5075166;28;20773;-61
2023/04/17 12:15:39;;;;;;;11.47;10.37;;;18.70;99.90;;;;;;5074598;28;20465;-60
2023/04/17 12:18:08;;;;;;;13.20;11.90;;;18.50;99.90;;;;;;5076586;28;20544;-61
2023/04/17 12:20:35;;;;;;;11.60;10.20;;;17.80;99.90;;;;;;5076668;28;20882;-60
2023/04/17 12:23:05;;;;;;;11.90;10.80;;;17.40;99.90;;;;;;5071314;28;20466;-59
2023/04/17 12:25:33;;;;;;;12.23;11.03;;;17.60;99.90;;;;;;5065501;28;20523;-60
2023/04/17 12:28:03;;;;;;;11.90;10.27;;;18.20;99.90;;;;;;5062422;28;20497;-59
2023/04/17 12:30:32;;;;;;;12.43;11.23;;;18.70;99.90;;;;;;5074431;28;20497;-60
2023/04/17 12:32:59;;;;;;;11.87;10.80;;;19.10;99.90;;;;;;5072116;28;20587;-60
2023/04/17 12:35:27;;;;;;;10.50;9.57;;;19.00;99.90;;;;;;5075192;28;20461;-58
2023/04/17 12:37:54;;;;;;;11.37;10.37;;;18.90;99.90;;;;;;5075957;28;20750;-58
2023/04/17 12:40:24;;;;;;;12.60;11.37;;;18.80;99.90;;;;;;5074008;28;20453;-60
2023/04/17 12:42:51;;;;;;;11.10;10.00;;;18.80;99.90;;;;;;5073787;28;20473;-61
2023/04/17 12:45:19;;;;;;;11.97;10.77;;;19.10;99.90;;;;;;5075446;28;20464;-61